sensor_id;sensor_type;location;lat;lon;timestamp;P1;durP1;ratioP1;P2;durP2;ratioP2
60006;SDS011;45863;50.336;3.536;2023-02-01T00:01:54;35.50;;;6.10;;
60006;SDS011;45863;50.336;3.536;2023-02-01T00:04:20;32.38;;;6.72;;
60006;SDS011;45863;50.336;3.536;2023-02-01T00:06:45;41.33;;;7.07;;
60006;SDS011;45863;50.336;3.536;2023-02-01T00:09:10;27.50;;;6.57;;
60006;SDS011;45863;50.336;3.536;2023-02-01T00:11:36;27.55;;;6.57;;
60006;SDS011;45863;50.336;3.536;2023-02-01T00:14:01;32.50;;;6.47;;
60006;SDS011;45863;50.336;3.536;2023-02-01T00:16:27;35.40;;;6.30;;
60006;SDS011;45863;50.336;3.536;2023-02-01T00:18:56;34.40;;;6.68;;
60006;SDS011;45863;50.336;3.536;2023-02-01T00:21:21;31.17;;;6.03;;
60006;SDS011;45863;50.336;3.536;2023-02-01T00:23:47;29.35;;;5.72;;
60006;SDS011;45863;50.336;3.536;2023-02-01T00:26:45;34.45;;;6.53;;
60006;SDS011;45863;50.336;3.536;2023-02-01T00:29:04;35.97;;;6.25;;
60006;SDS011;45863;50.336;3.536;2023-02-01T00:31:31;27.98;;;6.28;;
60006;SDS011;45863;50.336;3.536;2023-02-01T00:33:57;33.00;;;6.55;;
60006;SDS011;45863;50.336;3.536;2023-02-01T00:36:22;29.13;;;5.88;;
60006;SDS011;45863;50.336;3.536;2023-02-01T00:38:47;33.67;;;7.05;;
60006;SDS011;45863;50.336;3.536;2023-02-01T00:41:14;35.25;;;6.63;;
60006;SDS011;45863;50.336;3.536;2023-02-01T00:43:40;21.25;;;5.25;;
60006;SDS011;45863;50.336;3.536;2023-02-01T00:46:05;39.38;;;6.72;;
60006;SDS011;45863;50.336;3.536;2023-02-01T00:48:30;37.55;;;6.15;;
60006;SDS011;45863;50.336;3.536;2023-02-01T00:51:00;23.55;;;5.25;;
60006;SDS011;45863;50.336;3.536;2023-02-01T00:53:26;29.33;;;6.13;;
60006;SDS011;45863;50.336;3.536;2023-02-01T00:55:51;29.33;;;5.97;;
60006;SDS011;45863;50.336;3.536;2023-02-01T00:58:16;28.77;;;5.87;;
60006;SDS011;45863;50.336;3.536;2023-02-01T01:00:41;31.13;;;5.57;;
60006;SDS011;45863;50.336;3.536;2023-02-01T01:03:07;34.42;;;6.70;;
60006;SDS011;45863;50.336;3.536;2023-02-01T01:05:49;38.88;;;7.63;;
60006;SDS011;45863;50.336;3.536;2023-02-01T01:08:14;20.58;;;5.68;;
60006;SDS011;45863;50.336;3.536;2023-02-01T01:10:40;20.60;;;5.07;;
60006;SDS011;45863;50.336;3.536;2023-02-01T01:13:05;33.75;;;5.93;;
60006;SDS011;45863;50.336;3.536;2023-02-01T01:15:30;37.65;;;6.57;;
60006;SDS011;45863;50.336;3.536;2023-02-01T01:17:56;26.87;;;6.27;;
60006;SDS011;45863;50.336;3.536;2023-02-01T01:20:21;28.90;;;5.95;;
60006;SDS011;45863;50.336;3.536;2023-02-01T01:22:47;34.50;;;5.88;;
60006;SDS011;45863;50.336;3.536;2023-02-01T01:25:12;34.65;;;6.13;;
60006;SDS011;45863;50.336;3.536;2023-02-01T01:27:37;37.78;;;6.38;;
60006;SDS011;45863;50.336;3.536;2023-02-01T01:30:02;31.02;;;5.72;;
60006;SDS011;45863;50.336;3.536;2023-02-01T01:32:28;34.13;;;6.43;;
60006;SDS011;45863;50.336;3.536;2023-02-01T01:34:53;32.45;;;6.32;;
60006;SDS011;45863;50.336;3.536;2023-02-01T01:37:18;30.50;;;6.80;;
60006;SDS011;45863;50.336;3.536;2023-02-01T01:39:43;32.78;;;6.13;;
60006;SDS011;45863;50.336;3.536;2023-02-01T01:42:10;35.15;;;7.45;;
60006;SDS011;45863;50.336;3.536;2023-02-01T01:47:20;30.15;;;6.38;;
60006;SDS011;45863;50.336;3.536;2023-02-01T01:49:45;41.30;;;7.38;;
60006;SDS011;45863;50.336;3.536;2023-02-01T01:52:11;33.70;;;7.07;;
60006;SDS011;45863;50.336;3.536;2023-02-01T01:54:47;42.10;;;8.18;;
60006;SDS011;45863;50.336;3.536;2023-02-01T01:57:14;35.78;;;8.05;;
60006;SDS011;45863;50.336;3.536;2023-02-01T01:59:41;49.90;;;8.13;;
60006;SDS011;45863;50.336;3.536;2023-02-01T02:02:08;39.13;;;7.65;;
60006;SDS011;45863;50.336;3.536;2023-02-01T02:04:34;46.45;;;7.35;;
60006;SDS011;45863;50.336;3.536;2023-02-01T02:07:10;47.42;;;8.02;;
60006;SDS011;45863;50.336;3.536;2023-02-01T02:09:36;37.03;;;7.10;;
60006;SDS011;45863;50.336;3.536;2023-02-01T02:12:02;33.47;;;7.50;;
60006;SDS011;45863;50.336;3.536;2023-02-01T02:14:27;37.08;;;6.55;;
60006;SDS011;45863;50.336;3.536;2023-02-01T02:26:43;37.97;;;7.60;;
60006;SDS011;45863;50.336;3.536;2023-02-01T02:42:01;40.17;;;7.63;;
60006;SDS011;45863;50.336;3.536;2023-02-01T02:44:49;28.73;;;7.25;;
60006;SDS011;45863;50.336;3.536;2023-02-01T02:50:41;42.08;;;6.13;;
60006;SDS011;45863;50.336;3.536;2023-02-01T02:53:31;33.42;;;6.38;;
60006;SDS011;45863;50.336;3.536;2023-02-01T02:56:16;43.28;;;8.40;;
60006;SDS011;45863;50.336;3.536;2023-02-01T02:59:01;34.20;;;6.28;;
60006;SDS011;45863;50.336;3.536;2023-02-01T03:01:45;40.45;;;7.70;;
60006;SDS011;45863;50.336;3.536;2023-02-01T03:04:29;40.05;;;6.78;;
60006;SDS011;45863;50.336;3.536;2023-02-01T03:06:54;35.38;;;7.68;;
60006;SDS011;45863;50.336;3.536;2023-02-01T03:09:25;37.13;;;6.68;;
60006;SDS011;45863;50.336;3.536;2023-02-01T03:11:52;39.47;;;7.43;;
60006;SDS011;45863;50.336;3.536;2023-02-01T03:14:40;37.10;;;6.70;;
60006;SDS011;45863;50.336;3.536;2023-02-01T03:17:08;36.40;;;6.32;;
60006;SDS011;45863;50.336;3.536;2023-02-01T03:19:37;34.28;;;6.38;;
60006;SDS011;45863;50.336;3.536;2023-02-01T03:22:07;35.50;;;6.00;;
60006;SDS011;45863;50.336;3.536;2023-02-01T03:27:15;39.85;;;7.63;;
60006;SDS011;45863;50.336;3.536;2023-02-01T03:30:24;32.83;;;6.90;;
60006;SDS011;45863;50.336;3.536;2023-02-01T03:32:30;33.60;;;6.47;;
60006;SDS011;45863;50.336;3.536;2023-02-01T03:35:16;35.95;;;6.93;;
60006;SDS011;45863;50.336;3.536;2023-02-01T03:37:42;35.10;;;7.30;;
60006;SDS011;45863;50.336;3.536;2023-02-01T03:40:07;40.60;;;7.63;;
60006;SDS011;45863;50.336;3.536;2023-02-01T03:42:37;37.40;;;6.60;;
60006;SDS011;45863;50.336;3.536;2023-02-01T03:45:06;37.45;;;6.35;;
60006;SDS011;45863;50.336;3.536;2023-02-01T03:47:37;36.72;;;6.78;;
60006;SDS011;45863;50.336;3.536;2023-02-01T03:50:21;33.13;;;6.95;;
60006;SDS011;45863;50.336;3.536;2023-02-01T03:52:50;26.95;;;5.55;;
60006;SDS011;45863;50.336;3.536;2023-02-01T03:55:18;27.42;;;6.35;;
60006;SDS011;45863;50.336;3.536;2023-02-01T03:57:56;29.48;;;6.47;;
60006;SDS011;45863;50.336;3.536;2023-02-01T04:00:23;31.95;;;5.32;;
60006;SDS011;45863;50.336;3.536;2023-02-01T04:02:48;29.38;;;6.97;;
60006;SDS011;45863;50.336;3.536;2023-02-01T04:05:14;40.55;;;6.60;;
60006;SDS011;45863;50.336;3.536;2023-02-01T04:07:39;30.77;;;5.88;;
60006;SDS011;45863;50.336;3.536;2023-02-01T04:10:05;31.10;;;5.75;;
60006;SDS011;45863;50.336;3.536;2023-02-01T04:12:30;35.70;;;6.32;;
60006;SDS011;45863;50.336;3.536;2023-02-01T04:14:55;33.50;;;7.18;;
60006;SDS011;45863;50.336;3.536;2023-02-01T04:17:20;44.45;;;6.78;;
60006;SDS011;45863;50.336;3.536;2023-02-01T04:19:46;31.70;;;6.65;;
60006;SDS011;45863;50.336;3.536;2023-02-01T04:22:11;35.63;;;6.10;;
60006;SDS011;45863;50.336;3.536;2023-02-01T04:24:37;34.55;;;5.35;;
60006;SDS011;45863;50.336;3.536;2023-02-01T04:27:02;33.97;;;6.35;;
60006;SDS011;45863;50.336;3.536;2023-02-01T04:29:27;24.23;;;5.03;;
60006;SDS011;45863;50.336;3.536;2023-02-01T04:31:53;36.67;;;5.40;;
60006;SDS011;45863;50.336;3.536;2023-02-01T04:34:18;43.30;;;6.80;;
60006;SDS011;45863;50.336;3.536;2023-02-01T04:36:43;26.08;;;6.07;;
60006;SDS011;45863;50.336;3.536;2023-02-01T04:39:09;31.10;;;5.93;;
60006;SDS011;45863;50.336;3.536;2023-02-01T04:41:34;29.48;;;5.03;;
60006;SDS011;45863;50.336;3.536;2023-02-01T04:43:59;33.65;;;6.03;;
60006;SDS011;45863;50.336;3.536;2023-02-01T04:46:25;30.73;;;6.30;;
60006;SDS011;45863;50.336;3.536;2023-02-01T04:48:50;34.50;;;5.97;;
60006;SDS011;45863;50.336;3.536;2023-02-01T04:51:15;32.78;;;5.63;;
60006;SDS011;45863;50.336;3.536;2023-02-01T04:53:40;39.35;;;6.53;;
60006;SDS011;45863;50.336;3.536;2023-02-01T04:56:06;27.65;;;5.60;;
60006;SDS011;45863;50.336;3.536;2023-02-01T04:58:31;27.40;;;6.35;;
60006;SDS011;45863;50.336;3.536;2023-02-01T05:00:56;39.35;;;6.63;;
60006;SDS011;45863;50.336;3.536;2023-02-01T05:03:22;33.55;;;6.10;;
60006;SDS011;45863;50.336;3.536;2023-02-01T05:05:47;40.67;;;6.60;;
60006;SDS011;45863;50.336;3.536;2023-02-01T05:08:13;34.15;;;6.38;;
60006;SDS011;45863;50.336;3.536;2023-02-01T05:10:38;29.88;;;5.72;;
60006;SDS011;45863;50.336;3.536;2023-02-01T05:13:04;33.25;;;5.65;;
60006;SDS011;45863;50.336;3.536;2023-02-01T05:15:49;36.30;;;6.70;;
60006;SDS011;45863;50.336;3.536;2023-02-01T05:18:15;38.08;;;6.70;;
60006;SDS011;45863;50.336;3.536;2023-02-01T05:20:40;31.27;;;6.47;;
60006;SDS011;45863;50.336;3.536;2023-02-01T05:23:05;41.00;;;6.78;;
60006;SDS011;45863;50.336;3.536;2023-02-01T05:25:31;34.00;;;5.53;;
60006;SDS011;45863;50.336;3.536;2023-02-01T05:27:56;30.52;;;6.82;;
60006;SDS011;45863;50.336;3.536;2023-02-01T05:30:21;41.63;;;7.70;;
60006;SDS011;45863;50.336;3.536;2023-02-01T05:32:49;38.10;;;6.75;;
60006;SDS011;45863;50.336;3.536;2023-02-01T05:35:14;35.13;;;7.57;;
60006;SDS011;45863;50.336;3.536;2023-02-01T05:37:39;38.45;;;7.05;;
60006;SDS011;45863;50.336;3.536;2023-02-01T05:40:05;35.28;;;6.18;;
60006;SDS011;45863;50.336;3.536;2023-02-01T05:42:30;38.65;;;6.35;;
60006;SDS011;45863;50.336;3.536;2023-02-01T05:44:55;43.08;;;6.43;;
60006;SDS011;45863;50.336;3.536;2023-02-01T05:47:21;39.92;;;7.20;;
60006;SDS011;45863;50.336;3.536;2023-02-01T05:49:46;35.58;;;7.57;;
60006;SDS011;45863;50.336;3.536;2023-02-01T05:52:11;40.80;;;6.85;;
60006;SDS011;45863;50.336;3.536;2023-02-01T05:54:36;37.92;;;7.90;;
60006;SDS011;45863;50.336;3.536;2023-02-01T05:57:02;36.40;;;6.97;;
60006;SDS011;45863;50.336;3.536;2023-02-01T05:59:27;48.72;;;7.93;;
60006;SDS011;45863;50.336;3.536;2023-02-01T06:01:52;36.30;;;6.35;;
60006;SDS011;45863;50.336;3.536;2023-02-01T06:04:18;44.85;;;6.93;;
60006;SDS011;45863;50.336;3.536;2023-02-01T06:06:43;40.83;;;7.50;;
60006;SDS011;45863;50.336;3.536;2023-02-01T06:09:08;39.63;;;6.90;;
60006;SDS011;45863;50.336;3.536;2023-02-01T06:11:33;40.45;;;6.38;;
60006;SDS011;45863;50.336;3.536;2023-02-01T06:13:59;38.42;;;6.80;;
60006;SDS011;45863;50.336;3.536;2023-02-01T06:16:24;35.03;;;6.15;;
60006;SDS011;45863;50.336;3.536;2023-02-01T06:18:50;34.13;;;6.65;;
60006;SDS011;45863;50.336;3.536;2023-02-01T06:21:15;41.22;;;6.50;;
60006;SDS011;45863;50.336;3.536;2023-02-01T06:23:48;43.17;;;7.75;;
60006;SDS011;45863;50.336;3.536;2023-02-01T06:26:13;28.92;;;6.10;;
60006;SDS011;45863;50.336;3.536;2023-02-01T06:28:39;39.47;;;7.63;;
60006;SDS011;45863;50.336;3.536;2023-02-01T06:31:05;37.90;;;7.50;;
60006;SDS011;45863;50.336;3.536;2023-02-01T06:33:31;45.25;;;8.07;;
60006;SDS011;45863;50.336;3.536;2023-02-01T06:35:57;39.85;;;6.80;;
60006;SDS011;45863;50.336;3.536;2023-02-01T06:38:23;37.92;;;8.43;;
60006;SDS011;45863;50.336;3.536;2023-02-01T06:40:51;40.72;;;8.52;;
60006;SDS011;45863;50.336;3.536;2023-02-01T06:43:17;42.92;;;7.90;;
60006;SDS011;45863;50.336;3.536;2023-02-01T06:45:42;43.40;;;8.47;;
60006;SDS011;45863;50.336;3.536;2023-02-01T06:48:07;36.57;;;6.90;;
60006;SDS011;45863;50.336;3.536;2023-02-01T06:50:32;37.53;;;6.50;;
60006;SDS011;45863;50.336;3.536;2023-02-01T06:52:59;39.83;;;7.05;;
60006;SDS011;45863;50.336;3.536;2023-02-01T06:55:24;35.42;;;6.68;;
60006;SDS011;45863;50.336;3.536;2023-02-01T06:57:52;43.30;;;7.50;;
60006;SDS011;45863;50.336;3.536;2023-02-01T07:00:18;38.28;;;6.80;;
60006;SDS011;45863;50.336;3.536;2023-02-01T07:02:43;37.45;;;6.60;;
60006;SDS011;45863;50.336;3.536;2023-02-01T07:05:08;42.97;;;7.65;;
60006;SDS011;45863;50.336;3.536;2023-02-01T07:07:34;39.00;;;7.65;;
60006;SDS011;45863;50.336;3.536;2023-02-01T07:09:59;35.28;;;6.22;;
60006;SDS011;45863;50.336;3.536;2023-02-01T07:12:24;41.45;;;6.82;;
60006;SDS011;45863;50.336;3.536;2023-02-01T07:14:49;32.83;;;7.57;;
60006;SDS011;45863;50.336;3.536;2023-02-01T07:17:14;37.03;;;6.13;;
60006;SDS011;45863;50.336;3.536;2023-02-01T07:19:39;31.45;;;5.15;;
60006;SDS011;45863;50.336;3.536;2023-02-01T07:22:05;32.10;;;5.77;;
60006;SDS011;45863;50.336;3.536;2023-02-01T07:24:30;44.78;;;7.13;;
60006;SDS011;45863;50.336;3.536;2023-02-01T07:26:56;38.65;;;7.28;;
60006;SDS011;45863;50.336;3.536;2023-02-01T07:29:21;36.70;;;7.05;;
60006;SDS011;45863;50.336;3.536;2023-02-01T07:31:46;34.42;;;6.00;;
60006;SDS011;45863;50.336;3.536;2023-02-01T07:34:12;36.83;;;7.28;;
60006;SDS011;45863;50.336;3.536;2023-02-01T07:36:37;36.15;;;6.97;;
60006;SDS011;45863;50.336;3.536;2023-02-01T07:39:05;38.42;;;6.90;;
60006;SDS011;45863;50.336;3.536;2023-02-01T07:41:30;33.20;;;6.38;;
60006;SDS011;45863;50.336;3.536;2023-02-01T07:43:56;39.70;;;7.05;;
60006;SDS011;45863;50.336;3.536;2023-02-01T07:46:21;45.13;;;7.35;;
60006;SDS011;45863;50.336;3.536;2023-02-01T07:48:47;36.78;;;6.60;;
60006;SDS011;45863;50.336;3.536;2023-02-01T07:51:13;38.42;;;7.45;;
60006;SDS011;45863;50.336;3.536;2023-02-01T07:53:39;29.55;;;5.63;;
60006;SDS011;45863;50.336;3.536;2023-02-01T07:56:08;40.88;;;7.93;;
60006;SDS011;45863;50.336;3.536;2023-02-01T07:58:34;37.97;;;6.80;;
60006;SDS011;45863;50.336;3.536;2023-02-01T08:00:59;41.17;;;6.82;;
60006;SDS011;45863;50.336;3.536;2023-02-01T08:03:43;32.95;;;6.20;;
60006;SDS011;45863;50.336;3.536;2023-02-01T08:06:08;37.28;;;6.68;;
60006;SDS011;45863;50.336;3.536;2023-02-01T08:08:33;35.88;;;7.45;;
60006;SDS011;45863;50.336;3.536;2023-02-01T08:11:00;33.60;;;5.95;;
60006;SDS011;45863;50.336;3.536;2023-02-01T08:13:25;39.17;;;7.30;;
60006;SDS011;45863;50.336;3.536;2023-02-01T08:15:50;26.17;;;6.53;;
60006;SDS011;45863;50.336;3.536;2023-02-01T08:18:16;37.80;;;6.97;;
60006;SDS011;45863;50.336;3.536;2023-02-01T08:20:42;34.30;;;7.10;;
60006;SDS011;45863;50.336;3.536;2023-02-01T08:23:10;35.00;;;7.15;;
60006;SDS011;45863;50.336;3.536;2023-02-01T08:25:35;38.85;;;6.38;;
60006;SDS011;45863;50.336;3.536;2023-02-01T08:28:01;35.63;;;6.90;;
60006;SDS011;45863;50.336;3.536;2023-02-01T08:30:26;27.98;;;6.43;;
60006;SDS011;45863;50.336;3.536;2023-02-01T08:32:52;37.90;;;8.48;;
60006;SDS011;45863;50.336;3.536;2023-02-01T08:35:17;28.33;;;6.05;;
60006;SDS011;45863;50.336;3.536;2023-02-01T08:37:42;33.92;;;6.43;;
60006;SDS011;45863;50.336;3.536;2023-02-01T08:40:08;35.15;;;6.60;;
60006;SDS011;45863;50.336;3.536;2023-02-01T08:42:34;28.30;;;5.55;;
60006;SDS011;45863;50.336;3.536;2023-02-01T08:45:21;34.80;;;6.07;;
60006;SDS011;45863;50.336;3.536;2023-02-01T08:47:47;34.97;;;6.22;;
60006;SDS011;45863;50.336;3.536;2023-02-01T08:50:13;32.60;;;6.97;;
60006;SDS011;45863;50.336;3.536;2023-02-01T08:52:38;27.27;;;6.32;;
60006;SDS011;45863;50.336;3.536;2023-02-01T08:55:04;24.52;;;5.18;;
60006;SDS011;45863;50.336;3.536;2023-02-01T08:57:29;20.10;;;5.60;;
60006;SDS011;45863;50.336;3.536;2023-02-01T08:59:55;25.10;;;5.95;;
60006;SDS011;45863;50.336;3.536;2023-02-01T09:02:21;32.20;;;6.25;;
60006;SDS011;45863;50.336;3.536;2023-02-01T09:04:46;30.00;;;6.47;;
60006;SDS011;45863;50.336;3.536;2023-02-01T09:07:11;25.60;;;4.93;;
60006;SDS011;45863;50.336;3.536;2023-02-01T09:09:38;24.55;;;5.65;;
60006;SDS011;45863;50.336;3.536;2023-02-01T09:12:03;28.27;;;5.85;;
60006;SDS011;45863;50.336;3.536;2023-02-01T09:14:29;29.98;;;6.88;;
60006;SDS011;45863;50.336;3.536;2023-02-01T09:16:54;26.25;;;5.55;;
60006;SDS011;45863;50.336;3.536;2023-02-01T09:19:19;30.42;;;6.50;;
60006;SDS011;45863;50.336;3.536;2023-02-01T09:21:45;23.85;;;6.15;;
60006;SDS011;45863;50.336;3.536;2023-02-01T09:24:10;21.63;;;5.50;;
60006;SDS011;45863;50.336;3.536;2023-02-01T09:26:35;26.80;;;6.15;;
60006;SDS011;45863;50.336;3.536;2023-02-01T09:29:01;30.15;;;7.32;;
60006;SDS011;45863;50.336;3.536;2023-02-01T09:31:26;23.63;;;6.20;;
60006;SDS011;45863;50.336;3.536;2023-02-01T09:33:51;27.63;;;6.00;;
60006;SDS011;45863;50.336;3.536;2023-02-01T09:36:17;22.33;;;5.77;;
60006;SDS011;45863;50.336;3.536;2023-02-01T09:38:44;27.02;;;6.40;;
60006;SDS011;45863;50.336;3.536;2023-02-01T09:41:57;23.85;;;5.18;;
60006;SDS011;45863;50.336;3.536;2023-02-01T09:43:58;31.70;;;7.45;;
60006;SDS011;45863;50.336;3.536;2023-02-01T09:46:28;29.42;;;6.93;;
60006;SDS011;45863;50.336;3.536;2023-02-01T09:48:55;33.75;;;6.68;;
60006;SDS011;45863;50.336;3.536;2023-02-01T09:51:27;24.63;;;5.50;;
60006;SDS011;45863;50.336;3.536;2023-02-01T09:54:15;29.80;;;5.93;;
60006;SDS011;45863;50.336;3.536;2023-02-01T09:56:45;27.05;;;6.38;;
60006;SDS011;45863;50.336;3.536;2023-02-01T09:59:26;20.75;;;5.20;;
60006;SDS011;45863;50.336;3.536;2023-02-01T10:01:54;27.08;;;6.05;;
60006;SDS011;45863;50.336;3.536;2023-02-01T10:04:19;22.80;;;4.90;;
60006;SDS011;45863;50.336;3.536;2023-02-01T10:06:57;18.98;;;5.50;;
60006;SDS011;45863;50.336;3.536;2023-02-01T10:09:58;22.52;;;4.68;;
60006;SDS011;45863;50.336;3.536;2023-02-01T10:14:51;23.65;;;5.90;;
60006;SDS011;45863;50.336;3.536;2023-02-01T10:25:36;18.95;;;5.05;;
60006;SDS011;45863;50.336;3.536;2023-02-01T10:28:02;28.23;;;6.13;;
60006;SDS011;45863;50.336;3.536;2023-02-01T10:30:37;18.63;;;5.95;;
60006;SDS011;45863;50.336;3.536;2023-02-01T10:33:14;17.88;;;4.60;;
60006;SDS011;45863;50.336;3.536;2023-02-01T10:35:39;23.77;;;4.88;;
60006;SDS011;45863;50.336;3.536;2023-02-01T10:38:09;19.77;;;4.55;;
60006;SDS011;45863;50.336;3.536;2023-02-01T10:40:38;25.02;;;5.13;;
60006;SDS011;45863;50.336;3.536;2023-02-01T10:43:03;22.67;;;4.78;;
60006;SDS011;45863;50.336;3.536;2023-02-01T10:45:29;21.50;;;5.80;;
60006;SDS011;45863;50.336;3.536;2023-02-01T10:47:56;19.83;;;4.68;;
60006;SDS011;45863;50.336;3.536;2023-02-01T10:53:08;21.13;;;4.93;;
60006;SDS011;45863;50.336;3.536;2023-02-01T10:55:39;23.33;;;4.88;;
60006;SDS011;45863;50.336;3.536;2023-02-01T11:00:53;22.25;;;4.93;;
60006;SDS011;45863;50.336;3.536;2023-02-01T11:05:46;19.88;;;4.85;;
60006;SDS011;45863;50.336;3.536;2023-02-01T11:08:14;23.92;;;4.53;;
60006;SDS011;45863;50.336;3.536;2023-02-01T11:10:41;20.00;;;4.90;;
60006;SDS011;45863;50.336;3.536;2023-02-01T11:13:17;20.05;;;5.43;;
60006;SDS011;45863;50.336;3.536;2023-02-01T11:15:43;26.30;;;6.47;;
60006;SDS011;45863;50.336;3.536;2023-02-01T11:18:19;20.27;;;4.63;;
60006;SDS011;45863;50.336;3.536;2023-02-01T11:20:45;18.33;;;5.82;;
60006;SDS011;45863;50.336;3.536;2023-02-01T11:23:47;24.88;;;6.32;;
60006;SDS011;45863;50.336;3.536;2023-02-01T11:28:38;21.60;;;5.28;;
60006;SDS011;45863;50.336;3.536;2023-02-01T11:31:06;17.45;;;5.25;;
60006;SDS011;45863;50.336;3.536;2023-02-01T11:33:33;22.45;;;5.80;;
60006;SDS011;45863;50.336;3.536;2023-02-01T11:36:01;24.42;;;4.80;;
60006;SDS011;45863;50.336;3.536;2023-02-01T11:38:31;21.70;;;4.57;;
60006;SDS011;45863;50.336;3.536;2023-02-01T14:24:49;22.58;;;4.80;;
60006;SDS011;45863;50.336;3.536;2023-02-01T14:27:17;24.38;;;4.68;;
60006;SDS011;45863;50.336;3.536;2023-02-01T14:29:44;16.60;;;4.15;;
60006;SDS011;45863;50.336;3.536;2023-02-01T14:32:20;22.80;;;4.15;;
60006;SDS011;45863;50.336;3.536;2023-02-01T14:42:19;20.25;;;4.93;;
60006;SDS011;45863;50.336;3.536;2023-02-01T14:44:47;17.85;;;4.03;;
60006;SDS011;45863;50.336;3.536;2023-02-01T14:49:56;19.83;;;4.00;;
60006;SDS011;45863;50.336;3.536;2023-02-01T14:55:10;18.90;;;4.32;;
60006;SDS011;45863;50.336;3.536;2023-02-01T14:57:37;19.00;;;4.13;;
60006;SDS011;45863;50.336;3.536;2023-02-01T15:02:48;23.02;;;4.47;;
60006;SDS011;45863;50.336;3.536;2023-02-01T15:05:35;21.85;;;4.60;;
60006;SDS011;45863;50.336;3.536;2023-02-01T15:08:03;21.88;;;4.25;;
60006;SDS011;45863;50.336;3.536;2023-02-01T15:10:30;21.98;;;4.15;;
60006;SDS011;45863;50.336;3.536;2023-02-01T15:12:56;21.27;;;3.88;;
60006;SDS011;45863;50.336;3.536;2023-02-01T15:15:22;25.05;;;4.68;;
60006;SDS011;45863;50.336;3.536;2023-02-01T15:17:58;25.58;;;4.25;;
60006;SDS011;45863;50.336;3.536;2023-02-01T15:20:29;26.42;;;5.68;;
60006;SDS011;45863;50.336;3.536;2023-02-01T15:22:58;25.17;;;4.72;;
60006;SDS011;45863;50.336;3.536;2023-02-01T15:25:31;20.52;;;4.15;;
60006;SDS011;45863;50.336;3.536;2023-02-01T15:27:57;21.05;;;4.28;;
60006;SDS011;45863;50.336;3.536;2023-02-01T15:32:48;23.17;;;4.07;;
60006;SDS011;45863;50.336;3.536;2023-02-01T15:43:30;25.13;;;5.05;;
60006;SDS011;45863;50.336;3.536;2023-02-01T15:45:57;28.63;;;4.43;;
60006;SDS011;45863;50.336;3.536;2023-02-01T15:48:24;28.05;;;5.00;;
60006;SDS011;45863;50.336;3.536;2023-02-01T15:50:49;18.95;;;4.22;;
60006;SDS011;45863;50.336;3.536;2023-02-01T15:53:20;27.88;;;4.47;;
60006;SDS011;45863;50.336;3.536;2023-02-01T15:55:46;28.85;;;4.68;;
60006;SDS011;45863;50.336;3.536;2023-02-01T15:58:17;25.92;;;5.72;;
60006;SDS011;45863;50.336;3.536;2023-02-01T16:00:44;16.98;;;3.42;;
60006;SDS011;45863;50.336;3.536;2023-02-01T16:05:57;22.73;;;3.65;;
60006;SDS011;45863;50.336;3.536;2023-02-01T16:08:24;21.73;;;4.82;;
60006;SDS011;45863;50.336;3.536;2023-02-01T16:10:52;19.60;;;4.40;;
60006;SDS011;45863;50.336;3.536;2023-02-01T16:13:18;26.83;;;5.25;;
60006;SDS011;45863;50.336;3.536;2023-02-01T16:15:45;21.98;;;3.80;;
60006;SDS011;45863;50.336;3.536;2023-02-01T16:18:11;25.35;;;4.55;;
60006;SDS011;45863;50.336;3.536;2023-02-01T16:20:36;29.70;;;5.35;;
60006;SDS011;45863;50.336;3.536;2023-02-01T16:23:02;34.40;;;9.52;;
60006;SDS011;45863;50.336;3.536;2023-02-01T16:25:28;33.83;;;11.73;;
60006;SDS011;45863;50.336;3.536;2023-02-01T16:27:53;30.33;;;10.85;;
60006;SDS011;45863;50.336;3.536;2023-02-01T16:30:18;28.85;;;9.65;;
60006;SDS011;45863;50.336;3.536;2023-02-01T16:32:48;43.47;;;21.50;;
60006;SDS011;45863;50.336;3.536;2023-02-01T16:35:21;22.48;;;6.25;;
60006;SDS011;45863;50.336;3.536;2023-02-01T16:37:47;24.88;;;7.72;;
60006;SDS011;45863;50.336;3.536;2023-02-01T16:40:17;26.73;;;6.15;;
60006;SDS011;45863;50.336;3.536;2023-02-01T16:42:42;35.97;;;10.93;;
60006;SDS011;45863;50.336;3.536;2023-02-01T16:45:08;96.35;;;43.95;;
60006;SDS011;45863;50.336;3.536;2023-02-01T16:47:33;88.18;;;36.38;;
60006;SDS011;45863;50.336;3.536;2023-02-01T16:50:01;36.72;;;13.63;;
60006;SDS011;45863;50.336;3.536;2023-02-01T16:52:26;31.30;;;6.30;;
60006;SDS011;45863;50.336;3.536;2023-02-01T16:54:51;31.88;;;11.88;;
60006;SDS011;45863;50.336;3.536;2023-02-01T16:57:18;29.25;;;10.38;;
60006;SDS011;45863;50.336;3.536;2023-02-01T16:59:44;36.67;;;13.10;;
60006;SDS011;45863;50.336;3.536;2023-02-01T17:02:10;40.75;;;10.70;;
60006;SDS011;45863;50.336;3.536;2023-02-01T17:04:36;46.50;;;17.98;;
60006;SDS011;45863;50.336;3.536;2023-02-01T17:07:01;29.85;;;10.88;;
60006;SDS011;45863;50.336;3.536;2023-02-01T17:09:33;32.85;;;8.15;;
60006;SDS011;45863;50.336;3.536;2023-02-01T17:11:59;33.95;;;11.05;;
60006;SDS011;45863;50.336;3.536;2023-02-01T17:14:24;41.75;;;13.45;;
60006;SDS011;45863;50.336;3.536;2023-02-01T17:16:50;35.08;;;8.00;;
60006;SDS011;45863;50.336;3.536;2023-02-01T17:19:19;36.30;;;10.13;;
60006;SDS011;45863;50.336;3.536;2023-02-01T17:21:48;34.15;;;7.95;;
60006;SDS011;45863;50.336;3.536;2023-02-01T17:24:20;30.63;;;8.50;;
60006;SDS011;45863;50.336;3.536;2023-02-01T17:26:45;34.50;;;9.57;;
60006;SDS011;45863;50.336;3.536;2023-02-01T17:29:11;29.05;;;7.88;;
60006;SDS011;45863;50.336;3.536;2023-02-01T17:31:37;39.08;;;7.53;;
60006;SDS011;45863;50.336;3.536;2023-02-01T17:34:03;40.60;;;12.27;;
60006;SDS011;45863;50.336;3.536;2023-02-01T17:36:28;74.47;;;30.38;;
60006;SDS011;45863;50.336;3.536;2023-02-01T17:38:53;38.42;;;10.52;;
60006;SDS011;45863;50.336;3.536;2023-02-01T17:41:19;50.23;;;16.90;;
60006;SDS011;45863;50.336;3.536;2023-02-01T17:43:44;49.42;;;16.80;;
60006;SDS011;45863;50.336;3.536;2023-02-01T17:46:14;43.60;;;16.20;;
60006;SDS011;45863;50.336;3.536;2023-02-01T17:48:39;45.08;;;13.68;;
60006;SDS011;45863;50.336;3.536;2023-02-01T17:51:05;29.40;;;6.95;;
60006;SDS011;45863;50.336;3.536;2023-02-01T17:53:35;28.23;;;8.05;;
60006;SDS011;45863;50.336;3.536;2023-02-01T17:56:01;33.00;;;7.80;;
60006;SDS011;45863;50.336;3.536;2023-02-01T17:58:26;39.05;;;8.85;;
60006;SDS011;45863;50.336;3.536;2023-02-01T18:00:54;31.80;;;8.23;;
60006;SDS011;45863;50.336;3.536;2023-02-01T18:03:23;29.98;;;10.07;;
60006;SDS011;45863;50.336;3.536;2023-02-01T18:05:49;32.90;;;7.22;;
60006;SDS011;45863;50.336;3.536;2023-02-01T18:08:16;34.85;;;8.45;;
60006;SDS011;45863;50.336;3.536;2023-02-01T18:10:42;45.30;;;8.52;;
60006;SDS011;45863;50.336;3.536;2023-02-01T18:13:08;40.60;;;7.45;;
60006;SDS011;45863;50.336;3.536;2023-02-01T18:15:33;30.20;;;6.38;;
60006;SDS011;45863;50.336;3.536;2023-02-01T18:17:58;33.35;;;7.60;;
60006;SDS011;45863;50.336;3.536;2023-02-01T18:20:24;37.97;;;7.72;;
60006;SDS011;45863;50.336;3.536;2023-02-01T18:22:51;32.72;;;9.00;;
60006;SDS011;45863;50.336;3.536;2023-02-01T18:27:45;39.83;;;8.60;;
60006;SDS011;45863;50.336;3.536;2023-02-01T18:30:11;39.25;;;9.10;;
60006;SDS011;45863;50.336;3.536;2023-02-01T18:32:37;42.72;;;8.65;;
60006;SDS011;45863;50.336;3.536;2023-02-01T18:35:04;39.50;;;7.60;;
60006;SDS011;45863;50.336;3.536;2023-02-01T18:37:35;37.55;;;6.90;;
60006;SDS011;45863;50.336;3.536;2023-02-01T18:40:01;32.95;;;7.43;;
60006;SDS011;45863;50.336;3.536;2023-02-01T18:42:26;28.35;;;6.82;;
60006;SDS011;45863;50.336;3.536;2023-02-01T18:44:51;38.78;;;6.68;;